sim
Sign-in with your pilot id or email,
or register
Callsign
Passwort

Schedule Details

Flight Number: DLH1846
Departure: Munich Airport (EDDM) at 16:15
Arrival: Rome Leonardo da Vinci Fiumicino Airport (LIRF) at 17:45
Route: Lufthansa Passenger Schedule. Enter filed route here before submitting Pirep.

Weather Information
Getting current METAR information for EDDM 302350Z 06002KT 3000 0500NE R08L/0800N R08R/0500N BCFG NSC 05/04 Q1012 NOSIG
Getting current METAR information for LIRF 302350Z 09003KT 9999 FEW030 15/15 Q1012 NOSIG

Schedule Frequency

Route Map